sensor_id;sensor_type;location;lat;lon;timestamp;pressure;altitude;pressure_sealevel;temperature;humidity
46081;BME280;31821;51.880;-0.518;2022-12-04T00:00:09;100863.31;;;6.84;60.39
46081;BME280;31821;51.880;-0.518;2022-12-04T00:02:38;100805.59;;;6.28;59.89
46081;BME280;31821;51.880;-0.518;2022-12-04T00:05:05;100791.16;;;6.53;59.76
46081;BME280;31821;51.880;-0.518;2022-12-04T00:07:31;100844.41;;;6.88;60.00
46081;BME280;31821;51.880;-0.518;2022-12-04T00:09:56;100835.53;;;6.55;60.88
46081;BME280;31821;51.880;-0.518;2022-12-04T00:12:22;100804.78;;;6.27;59.49
46081;BME280;31821;51.880;-0.518;2022-12-04T00:14:47;100828.63;;;6.32;61.64
46081;BME280;31821;51.880;-0.518;2022-12-04T00:17:13;100756.34;;;6.48;60.15
46081;BME280;31821;51.880;-0.518;2022-12-04T00:19:39;100711.56;;;6.01;60.12
46081;BME280;31821;51.880;-0.518;2022-12-04T00:22:04;100686.22;;;5.63;60.73
46081;BME280;31821;51.880;-0.518;2022-12-04T00:24:30;100762.97;;;6.63;59.01
46081;BME280;31821;51.880;-0.518;2022-12-04T00:26:55;100726.66;;;6.04;60.74
46081;BME280;31821;51.880;-0.518;2022-12-04T00:29:21;100732.41;;;6.08;59.65
46081;BME280;31821;51.880;-0.518;2022-12-04T00:31:46;100705.13;;;5.70;61.26
46081;BME280;31821;51.880;-0.518;2022-12-04T00:34:12;100787.50;;;6.21;61.39
46081;BME280;31821;51.880;-0.518;2022-12-04T00:36:38;100695.59;;;5.78;60.69
46081;BME280;31821;51.880;-0.518;2022-12-04T00:39:04;100639.47;;;5.70;60.32
46081;BME280;31821;51.880;-0.518;2022-12-04T00:41:31;100754.91;;;6.20;61.25
46081;BME280;31821;51.880;-0.518;2022-12-04T00:43:58;100795.00;;;6.57;60.52
46081;BME280;31821;51.880;-0.518;2022-12-04T00:46:24;100741.19;;;6.10;60.50
46081;BME280;31821;51.880;-0.518;2022-12-04T00:48:50;100725.31;;;6.17;60.09
46081;BME280;31821;51.880;-0.518;2022-12-04T00:51:21;100828.22;;;6.81;60.09
46081;BME280;31821;51.880;-0.518;2022-12-04T00:53:47;100822.47;;;6.88;59.94
46081;BME280;31821;51.880;-0.518;2022-12-04T00:56:17;100827.69;;;7.10;59.52
46081;BME280;31821;51.880;-0.518;2022-12-04T00:58:42;100821.41;;;6.99;59.69
46081;BME280;31821;51.880;-0.518;2022-12-04T01:01:11;100834.03;;;7.21;58.44
46081;BME280;31821;51.880;-0.518;2022-12-04T01:03:37;100761.03;;;6.58;59.80
46081;BME280;31821;51.880;-0.518;2022-12-04T01:06:04;100816.72;;;7.10;57.97
46081;BME280;31821;51.880;-0.518;2022-12-04T01:08:31;100738.59;;;6.61;58.59
46081;BME280;31821;51.880;-0.518;2022-12-04T01:10:57;100755.00;;;6.66;57.87
46081;BME280;31821;51.880;-0.518;2022-12-04T01:13:23;100742.16;;;6.82;58.43
46081;BME280;31821;51.880;-0.518;2022-12-04T01:15:49;100749.53;;;6.92;57.30
46081;BME280;31821;51.880;-0.518;2022-12-04T01:18:16;100754.13;;;6.40;58.98
46081;BME280;31821;51.880;-0.518;2022-12-04T01:20:49;100780.81;;;6.96;58.50
46081;BME280;31821;51.880;-0.518;2022-12-04T01:23:16;100697.47;;;6.56;58.21
46081;BME280;31821;51.880;-0.518;2022-12-04T01:25:52;100752.78;;;6.48;59.21
46081;BME280;31821;51.880;-0.518;2022-12-04T01:28:18;100648.81;;;5.74;59.45
46081;BME280;31821;51.880;-0.518;2022-12-04T01:30:43;100693.28;;;6.17;58.95
46081;BME280;31821;51.880;-0.518;2022-12-04T01:33:09;100768.75;;;5.98;60.80
46081;BME280;31821;51.880;-0.518;2022-12-04T01:35:35;100750.31;;;6.46;59.62
46081;BME280;31821;51.880;-0.518;2022-12-04T01:38:01;100811.78;;;7.18;59.24
46081;BME280;31821;51.880;-0.518;2022-12-04T01:40:26;100749.00;;;6.90;57.91
46081;BME280;31821;51.880;-0.518;2022-12-04T01:42:52;100779.16;;;6.70;59.28
46081;BME280;31821;51.880;-0.518;2022-12-04T01:47:57;100809.53;;;6.63;59.12
46081;BME280;31821;51.880;-0.518;2022-12-04T01:50:27;100777.50;;;6.68;58.65
46081;BME280;31821;51.880;-0.518;2022-12-04T01:52:53;100762.31;;;6.25;59.44
46081;BME280;31821;51.880;-0.518;2022-12-04T01:55:19;100753.00;;;6.15;60.72
46081;BME280;31821;51.880;-0.518;2022-12-04T01:57:45;100806.94;;;6.20;60.58
46081;BME280;31821;51.880;-0.518;2022-12-04T02:00:12;100804.56;;;5.91;61.38
46081;BME280;31821;51.880;-0.518;2022-12-04T02:02:41;100794.34;;;6.19;60.77
46081;BME280;31821;51.880;-0.518;2022-12-04T02:05:11;100785.84;;;6.20;60.73
46081;BME280;31821;51.880;-0.518;2022-12-04T02:07:37;100790.44;;;5.99;61.52
46081;BME280;31821;51.880;-0.518;2022-12-04T02:10:05;100801.81;;;5.86;61.52
46081;BME280;31821;51.880;-0.518;2022-12-04T02:18:02;100761.00;;;5.79;61.23
46081;BME280;31821;51.880;-0.518;2022-12-04T02:21:11;100805.22;;;5.60;62.95
46081;BME280;31821;51.880;-0.518;2022-12-04T02:23:50;100797.09;;;5.76;61.38
46081;BME280;31821;51.880;-0.518;2022-12-04T02:26:25;100707.06;;;5.21;62.80
46081;BME280;31821;51.880;-0.518;2022-12-04T02:34:50;100735.28;;;5.27;61.71
46081;BME280;31821;51.880;-0.518;2022-12-04T02:37:29;100797.41;;;5.80;63.01
46081;BME280;31821;51.880;-0.518;2022-12-04T02:40:22;100718.06;;;4.94;63.38
46081;BME280;31821;51.880;-0.518;2022-12-04T02:42:56;100795.22;;;5.82;61.48
46081;BME280;31821;51.880;-0.518;2022-12-04T02:45:28;100761.28;;;5.35;63.13
46081;BME280;31821;51.880;-0.518;2022-12-04T02:47:55;100739.78;;;5.49;61.73
46081;BME280;31821;51.880;-0.518;2022-12-04T02:50:24;100753.69;;;5.42;63.32
46081;BME280;31821;51.880;-0.518;2022-12-04T02:52:57;100767.50;;;5.63;61.48
46081;BME280;31821;51.880;-0.518;2022-12-04T02:55:35;100738.75;;;5.17;62.98
46081;BME280;31821;51.880;-0.518;2022-12-04T02:58:16;100790.81;;;5.81;61.76
46081;BME280;31821;51.880;-0.518;2022-12-04T03:00:45;100767.22;;;5.64;61.37
46081;BME280;31821;51.880;-0.518;2022-12-04T03:03:21;100763.84;;;5.52;62.24
46081;BME280;31821;51.880;-0.518;2022-12-04T03:08:39;100793.31;;;5.87;61.11
46081;BME280;31821;51.880;-0.518;2022-12-04T03:11:07;100708.91;;;5.58;60.84
46081;BME280;31821;51.880;-0.518;2022-12-04T03:13:50;100783.47;;;5.86;61.25
46081;BME280;31821;51.880;-0.518;2022-12-04T03:16:26;100729.16;;;5.57;60.76
46081;BME280;31821;51.880;-0.518;2022-12-04T03:18:58;100770.41;;;5.99;60.43
46081;BME280;31821;51.880;-0.518;2022-12-04T03:21:29;100745.31;;;6.12;59.58
46081;BME280;31821;51.880;-0.518;2022-12-04T03:24:22;100625.06;;;5.26;58.75
46081;BME280;31821;51.880;-0.518;2022-12-04T03:26:52;100714.84;;;5.98;59.30
46081;BME280;31821;51.880;-0.518;2022-12-04T03:29:19;100774.34;;;6.13;60.29
46081;BME280;31821;51.880;-0.518;2022-12-04T03:35:41;100754.59;;;5.58;60.44
46081;BME280;31821;51.880;-0.518;2022-12-04T03:37:40;100659.22;;;4.81;60.73
46081;BME280;31821;51.880;-0.518;2022-12-04T03:43:12;100759.78;;;6.08;59.15
46081;BME280;31821;51.880;-0.518;2022-12-04T03:45:46;100705.91;;;5.60;58.84
46081;BME280;31821;51.880;-0.518;2022-12-04T03:48:23;100747.56;;;5.72;59.86
46081;BME280;31821;51.880;-0.518;2022-12-04T03:53:50;100767.41;;;6.00;60.15
46081;BME280;31821;51.880;-0.518;2022-12-04T03:56:20;100717.34;;;5.47;60.32
46081;BME280;31821;51.880;-0.518;2022-12-04T03:58:52;100722.53;;;5.48;60.07
46081;BME280;31821;51.880;-0.518;2022-12-04T04:01:22;100775.31;;;5.97;59.72
46081;BME280;31821;51.880;-0.518;2022-12-04T04:03:51;100770.91;;;5.90;59.83
46081;BME280;31821;51.880;-0.518;2022-12-04T04:06:45;100756.31;;;5.69;61.38
46081;BME280;31821;51.880;-0.518;2022-12-04T04:09:16;100649.19;;;4.92;60.03
46081;BME280;31821;51.880;-0.518;2022-12-04T04:11:59;100696.38;;;5.68;59.62
46081;BME280;31821;51.880;-0.518;2022-12-04T04:14:33;100737.13;;;6.22;58.54
46081;BME280;31821;51.880;-0.518;2022-12-04T04:17:24;100759.09;;;5.80;59.60
46081;BME280;31821;51.880;-0.518;2022-12-04T04:20:16;100767.31;;;5.85;59.61
46081;BME280;31821;51.880;-0.518;2022-12-04T04:23:02;100755.06;;;5.93;59.85
46081;BME280;31821;51.880;-0.518;2022-12-04T04:25:50;100763.94;;;6.15;59.59
46081;BME280;31821;51.880;-0.518;2022-12-04T04:28:34;100745.53;;;6.05;58.56
46081;BME280;31821;51.880;-0.518;2022-12-04T04:31:15;100759.97;;;5.90;59.51
46081;BME280;31821;51.880;-0.518;2022-12-04T04:41:58;100753.41;;;5.97;60.18
46081;BME280;31821;51.880;-0.518;2022-12-04T04:47:05;100756.84;;;6.25;58.89
46081;BME280;31821;51.880;-0.518;2022-12-04T04:49:33;100709.97;;;6.11;59.24
46081;BME280;31821;51.880;-0.518;2022-12-04T04:52:01;100758.47;;;6.15;59.55
46081;BME280;31821;51.880;-0.518;2022-12-04T04:54:28;100675.16;;;5.37;60.74
46081;BME280;31821;51.880;-0.518;2022-12-04T04:56:55;100737.78;;;5.87;60.89
46081;BME280;31821;51.880;-0.518;2022-12-04T04:59:20;100735.72;;;6.10;60.37
46081;BME280;31821;51.880;-0.518;2022-12-04T05:01:46;100701.00;;;5.62;60.43
46081;BME280;31821;51.880;-0.518;2022-12-04T05:04:12;100763.09;;;6.10;61.22
46081;BME280;31821;51.880;-0.518;2022-12-04T05:06:38;100765.06;;;5.71;61.52
46081;BME280;31821;51.880;-0.518;2022-12-04T05:09:03;100707.16;;;5.37;62.39
46081;BME280;31821;51.880;-0.518;2022-12-04T05:11:29;100705.22;;;5.96;60.61
46081;BME280;31821;51.880;-0.518;2022-12-04T05:13:55;100758.53;;;6.46;60.43
46081;BME280;31821;51.880;-0.518;2022-12-04T05:16:20;100753.28;;;6.19;59.85
46081;BME280;31821;51.880;-0.518;2022-12-04T05:18:46;100680.19;;;5.61;59.71
46081;BME280;31821;51.880;-0.518;2022-12-04T05:21:30;100771.88;;;6.22;60.06
46081;BME280;31821;51.880;-0.518;2022-12-04T05:23:56;100758.88;;;5.97;61.20
46081;BME280;31821;51.880;-0.518;2022-12-04T05:26:21;100719.06;;;6.32;59.93
46081;BME280;31821;51.880;-0.518;2022-12-04T05:28:47;100763.94;;;6.20;58.97
46081;BME280;31821;51.880;-0.518;2022-12-04T05:31:12;100701.97;;;5.99;60.52
46081;BME280;31821;51.880;-0.518;2022-12-04T05:33:38;100695.53;;;6.41;58.20
46081;BME280;31821;51.880;-0.518;2022-12-04T05:36:06;100708.59;;;6.03;58.16
46081;BME280;31821;51.880;-0.518;2022-12-04T05:38:32;100720.66;;;6.12;58.82
46081;BME280;31821;51.880;-0.518;2022-12-04T05:40:58;100735.22;;;6.33;58.76
46081;BME280;31821;51.880;-0.518;2022-12-04T05:43:24;100743.50;;;6.49;57.16
46081;BME280;31821;51.880;-0.518;2022-12-04T05:45:50;100772.41;;;6.09;58.47
46081;BME280;31821;51.880;-0.518;2022-12-04T05:48:15;100759.66;;;6.50;58.10
46081;BME280;31821;51.880;-0.518;2022-12-04T05:50:41;100678.22;;;6.15;57.38
46081;BME280;31821;51.880;-0.518;2022-12-04T05:53:06;100684.56;;;5.57;58.19
46081;BME280;31821;51.880;-0.518;2022-12-04T05:55:32;100676.13;;;5.69;59.07
46081;BME280;31821;51.880;-0.518;2022-12-04T05:57:58;100770.75;;;6.08;59.26
46081;BME280;31821;51.880;-0.518;2022-12-04T06:00:23;100690.75;;;5.37;60.63
46081;BME280;31821;51.880;-0.518;2022-12-04T06:02:49;100645.34;;;4.88;60.15
46081;BME280;31821;51.880;-0.518;2022-12-04T06:05:15;100756.31;;;5.74;59.31
46081;BME280;31821;51.880;-0.518;2022-12-04T06:07:40;100759.16;;;5.95;58.77
46081;BME280;31821;51.880;-0.518;2022-12-04T06:10:06;100756.69;;;5.94;58.65
46081;BME280;31821;51.880;-0.518;2022-12-04T06:12:32;100733.13;;;5.87;58.19
46081;BME280;31821;51.880;-0.518;2022-12-04T06:14:58;100597.66;;;5.11;58.37
46081;BME280;31821;51.880;-0.518;2022-12-04T06:17:23;100733.69;;;5.89;58.38
46081;BME280;31821;51.880;-0.518;2022-12-04T06:19:49;100674.25;;;5.74;57.75
46081;BME280;31821;51.880;-0.518;2022-12-04T06:22:14;100715.44;;;6.11;57.78
46081;BME280;31821;51.880;-0.518;2022-12-04T06:24:40;100752.81;;;5.84;59.93
46081;BME280;31821;51.880;-0.518;2022-12-04T06:27:06;100681.97;;;5.29;59.82
46081;BME280;31821;51.880;-0.518;2022-12-04T06:29:32;100781.19;;;6.16;59.01
46081;BME280;31821;51.880;-0.518;2022-12-04T06:31:57;100721.38;;;5.87;58.12
46081;BME280;31821;51.880;-0.518;2022-12-04T06:34:23;100735.97;;;6.08;58.81
46081;BME280;31821;51.880;-0.518;2022-12-04T06:36:48;100705.34;;;6.21;58.01
46081;BME280;31821;51.880;-0.518;2022-12-04T06:39:13;100764.88;;;6.57;56.81
46081;BME280;31821;51.880;-0.518;2022-12-04T06:41:39;100765.28;;;6.08;58.81
46081;BME280;31821;51.880;-0.518;2022-12-04T06:44:05;100769.47;;;6.36;58.08
46081;BME280;31821;51.880;-0.518;2022-12-04T06:46:32;100703.00;;;5.82;58.49
46081;BME280;31821;51.880;-0.518;2022-12-04T06:48:59;100771.31;;;6.15;59.26
46081;BME280;31821;51.880;-0.518;2022-12-04T06:51:33;100744.06;;;5.82;59.15
46081;BME280;31821;51.880;-0.518;2022-12-04T06:54:00;100754.31;;;6.13;58.65
46081;BME280;31821;51.880;-0.518;2022-12-04T06:56:28;100727.88;;;5.81;58.26
46081;BME280;31821;51.880;-0.518;2022-12-04T06:58:56;100704.31;;;5.69;58.54
46081;BME280;31821;51.880;-0.518;2022-12-04T07:01:24;100742.09;;;5.72;59.27
46081;BME280;31821;51.880;-0.518;2022-12-04T07:03:50;100721.22;;;5.61;60.84
46081;BME280;31821;51.880;-0.518;2022-12-04T07:08:50;100774.97;;;6.46;57.57
46081;BME280;31821;51.880;-0.518;2022-12-04T07:11:16;100703.44;;;5.58;60.25
46081;BME280;31821;51.880;-0.518;2022-12-04T07:13:42;100732.31;;;5.92;58.96
46081;BME280;31821;51.880;-0.518;2022-12-04T07:16:10;100788.91;;;6.29;59.72
46081;BME280;31821;51.880;-0.518;2022-12-04T07:18:37;100776.47;;;6.01;59.92
46081;BME280;31821;51.880;-0.518;2022-12-04T07:21:07;100763.19;;;6.41;57.89
46081;BME280;31821;51.880;-0.518;2022-12-04T07:23:33;100750.38;;;5.93;60.08
46081;BME280;31821;51.880;-0.518;2022-12-04T07:26:07;100692.44;;;5.48;59.06
46081;BME280;31821;51.880;-0.518;2022-12-04T07:28:33;100774.97;;;5.78;61.14
46081;BME280;31821;51.880;-0.518;2022-12-04T07:31:08;100754.44;;;5.85;60.50
46081;BME280;31821;51.880;-0.518;2022-12-04T07:33:34;100777.22;;;5.96;60.35
46081;BME280;31821;51.880;-0.518;2022-12-04T07:36:02;100737.97;;;5.70;60.28
46081;BME280;31821;51.880;-0.518;2022-12-04T07:38:29;100717.53;;;5.35;59.86
46081;BME280;31821;51.880;-0.518;2022-12-04T07:40:56;100736.41;;;5.84;60.21
46081;BME280;31821;51.880;-0.518;2022-12-04T07:43:22;100744.34;;;5.38;60.93
46081;BME280;31821;51.880;-0.518;2022-12-04T07:45:47;100658.25;;;4.97;61.08
46081;BME280;31821;51.880;-0.518;2022-12-04T07:48:13;100790.19;;;6.11;60.05
46081;BME280;31821;51.880;-0.518;2022-12-04T07:50:38;100727.34;;;5.84;60.79
46081;BME280;31821;51.880;-0.518;2022-12-04T07:53:04;100747.91;;;5.38;62.04
46081;BME280;31821;51.880;-0.518;2022-12-04T07:55:30;100734.91;;;5.56;61.49
46081;BME280;31821;51.880;-0.518;2022-12-04T07:57:55;100662.81;;;5.29;60.77
46081;BME280;31821;51.880;-0.518;2022-12-04T08:00:21;100683.19;;;5.11;61.75
46081;BME280;31821;51.880;-0.518;2022-12-04T08:02:46;100755.47;;;5.64;61.46
46081;BME280;31821;51.880;-0.518;2022-12-04T08:05:12;100745.03;;;5.60;61.51
46081;BME280;31821;51.880;-0.518;2022-12-04T08:07:37;100796.59;;;6.43;60.29
46081;BME280;31821;51.880;-0.518;2022-12-04T08:10:03;100675.00;;;5.54;60.75
46081;BME280;31821;51.880;-0.518;2022-12-04T08:12:31;100736.56;;;5.62;61.69
46081;BME280;31821;51.880;-0.518;2022-12-04T08:14:57;100797.59;;;5.68;63.15
46081;BME280;31821;51.880;-0.518;2022-12-04T08:17:23;100809.97;;;5.33;63.14
46081;BME280;31821;51.880;-0.518;2022-12-04T08:19:48;100772.22;;;5.78;62.57
46081;BME280;31821;51.880;-0.518;2022-12-04T08:22:14;100802.09;;;5.89;61.24
46081;BME280;31821;51.880;-0.518;2022-12-04T08:24:39;100800.00;;;6.02;62.43
46081;BME280;31821;51.880;-0.518;2022-12-04T08:27:05;100755.72;;;5.24;63.54
46081;BME280;31821;51.880;-0.518;2022-12-04T08:29:30;100760.16;;;5.73;62.24
46081;BME280;31821;51.880;-0.518;2022-12-04T08:31:56;100726.66;;;5.08;63.71
46081;BME280;31821;51.880;-0.518;2022-12-04T08:34:22;100732.50;;;4.57;64.81
46081;BME280;31821;51.880;-0.518;2022-12-04T08:36:48;100827.88;;;5.94;62.96
46081;BME280;31821;51.880;-0.518;2022-12-04T08:39:13;100775.84;;;5.46;63.86
46081;BME280;31821;51.880;-0.518;2022-12-04T08:41:39;100769.75;;;5.33;63.87
46081;BME280;31821;51.880;-0.518;2022-12-04T08:44:04;100799.50;;;6.10;62.30
46081;BME280;31821;51.880;-0.518;2022-12-04T08:46:30;100790.34;;;5.94;63.44
46081;BME280;31821;51.880;-0.518;2022-12-04T08:48:56;100814.13;;;5.88;62.83
46081;BME280;31821;51.880;-0.518;2022-12-04T08:51:25;100825.53;;;5.70;63.55
46081;BME280;31821;51.880;-0.518;2022-12-04T08:53:53;100758.25;;;5.31;63.60
46081;BME280;31821;51.880;-0.518;2022-12-04T08:56:19;100766.41;;;5.64;62.93
46081;BME280;31821;51.880;-0.518;2022-12-04T08:58:45;100815.69;;;6.22;62.73
46081;BME280;31821;51.880;-0.518;2022-12-04T09:01:12;100716.19;;;5.37;61.68
46081;BME280;31821;51.880;-0.518;2022-12-04T09:03:39;100737.91;;;5.59;63.07
46081;BME280;31821;51.880;-0.518;2022-12-04T09:06:06;100839.44;;;5.63;64.60
46081;BME280;31821;51.880;-0.518;2022-12-04T09:08:32;100749.66;;;5.55;63.31
46081;BME280;31821;51.880;-0.518;2022-12-04T09:11:13;100828.50;;;5.63;64.71
46081;BME280;31821;51.880;-0.518;2022-12-04T09:13:39;100834.16;;;5.94;63.43
46081;BME280;31821;51.880;-0.518;2022-12-04T09:16:08;100824.13;;;6.05;62.74
46081;BME280;31821;51.880;-0.518;2022-12-04T09:18:35;100808.78;;;5.61;63.83
46081;BME280;31821;51.880;-0.518;2022-12-04T09:21:04;100806.53;;;5.53;64.13
46081;BME280;31821;51.880;-0.518;2022-12-04T09:23:29;100756.41;;;5.42;64.14
46081;BME280;31821;51.880;-0.518;2022-12-04T09:25:55;100697.84;;;4.95;64.10
46081;BME280;31821;51.880;-0.518;2022-12-04T09:28:21;100770.44;;;5.13;64.52
46081;BME280;31821;51.880;-0.518;2022-12-04T09:31:02;100844.03;;;5.57;64.08
46081;BME280;31821;51.880;-0.518;2022-12-04T09:33:28;100817.59;;;6.16;62.52
46081;BME280;31821;51.880;-0.518;2022-12-04T09:35:57;100828.97;;;5.98;63.98
46081;BME280;31821;51.880;-0.518;2022-12-04T09:38:23;100852.22;;;5.90;64.36
46081;BME280;31821;51.880;-0.518;2022-12-04T09:40:54;100845.56;;;5.81;64.51
46081;BME280;31821;51.880;-0.518;2022-12-04T09:45:50;100815.34;;;6.03;62.74
46081;BME280;31821;51.880;-0.518;2022-12-04T09:48:17;100831.22;;;6.06;63.11
46081;BME280;31821;51.880;-0.518;2022-12-04T09:50:45;100847.03;;;5.99;63.40
46081;BME280;31821;51.880;-0.518;2022-12-04T09:53:18;100855.66;;;6.18;63.79
46081;BME280;31821;51.880;-0.518;2022-12-04T09:56:05;100857.78;;;6.05;63.97
46081;BME280;31821;51.880;-0.518;2022-12-04T09:58:39;100836.56;;;6.33;62.28
46081;BME280;31821;51.880;-0.518;2022-12-04T10:01:18;100856.06;;;6.47;62.29
46081;BME280;31821;51.880;-0.518;2022-12-04T10:03:45;100804.56;;;5.91;61.64
46081;BME280;31821;51.880;-0.518;2022-12-04T10:08:44;100812.75;;;5.86;62.29
46081;BME280;31821;51.880;-0.518;2022-12-04T10:24:48;100817.63;;;6.27;61.86
46081;BME280;31821;51.880;-0.518;2022-12-04T10:27:22;100848.88;;;6.31;62.25
46081;BME280;31821;51.880;-0.518;2022-12-04T10:29:58;100836.59;;;6.39;62.52
46081;BME280;31821;51.880;-0.518;2022-12-04T10:32:30;100777.97;;;5.81;63.43
46081;BME280;31821;51.880;-0.518;2022-12-04T10:35:17;100858.75;;;6.37;62.72
46081;BME280;31821;51.880;-0.518;2022-12-04T10:37:43;100834.50;;;6.03;63.24
46081;BME280;31821;51.880;-0.518;2022-12-04T10:40:24;100809.16;;;6.33;62.71
46081;BME280;31821;51.880;-0.518;2022-12-04T10:43:05;100848.06;;;6.30;63.18
46081;BME280;31821;51.880;-0.518;2022-12-04T10:45:36;100860.59;;;7.00;60.77
46081;BME280;31821;51.880;-0.518;2022-12-04T10:48:01;100808.44;;;6.64;61.61
46081;BME280;31821;51.880;-0.518;2022-12-04T10:50:27;100837.22;;;6.72;60.38
46081;BME280;31821;51.880;-0.518;2022-12-04T10:52:53;100829.00;;;6.66;61.10
46081;BME280;31821;51.880;-0.518;2022-12-04T10:55:29;100753.88;;;6.47;60.63
46081;BME280;31821;51.880;-0.518;2022-12-04T10:57:55;100836.31;;;6.40;61.38
46081;BME280;31821;51.880;-0.518;2022-12-04T11:00:24;100806.53;;;6.59;60.78
46081;BME280;31821;51.880;-0.518;2022-12-04T11:02:52;100787.88;;;6.51;61.18
46081;BME280;31821;51.880;-0.518;2022-12-04T11:05:33;100800.75;;;6.61;61.74
46081;BME280;31821;51.880;-0.518;2022-12-04T11:08:02;100807.59;;;6.48;61.69
46081;BME280;31821;51.880;-0.518;2022-12-04T11:10:37;100726.22;;;5.74;62.87
46081;BME280;31821;51.880;-0.518;2022-12-04T11:13:12;100791.38;;;6.26;62.77
46081;BME280;31821;51.880;-0.518;2022-12-04T11:18:15;100817.91;;;6.25;63.18
46081;BME280;31821;51.880;-0.518;2022-12-04T11:20:48;100850.94;;;6.72;62.19
46081;BME280;31821;51.880;-0.518;2022-12-04T11:23:15;100781.06;;;6.64;61.72
46081;BME280;31821;51.880;-0.518;2022-12-04T11:25:47;100778.91;;;6.87;61.02
46081;BME280;31821;51.880;-0.518;2022-12-04T11:28:16;100825.34;;;6.35;62.22
46081;BME280;31821;51.880;-0.518;2022-12-04T11:31:07;100853.22;;;7.16;60.52
46081;BME280;31821;51.880;-0.518;2022-12-04T11:33:38;100808.78;;;7.04;60.70
46081;BME280;31821;51.880;-0.518;2022-12-04T11:38:45;100844.19;;;7.26;60.83
46081;BME280;31821;51.880;-0.518;2022-12-04T11:41:26;100787.59;;;6.52;60.75
46081;BME280;31821;51.880;-0.518;2022-12-04T11:43:52;100826.84;;;6.79;61.25
46081;BME280;31821;51.880;-0.518;2022-12-04T11:46:24;100796.09;;;6.51;61.58
46081;BME280;31821;51.880;-0.518;2022-12-04T11:48:50;100780.22;;;6.68;60.72
46081;BME280;31821;51.880;-0.518;2022-12-04T11:54:13;100846.34;;;6.93;61.77
46081;BME280;31821;51.880;-0.518;2022-12-04T11:56:47;100829.88;;;6.93;60.76
46081;BME280;31821;51.880;-0.518;2022-12-04T12:02:38;100823.00;;;6.80;60.67
46081;BME280;31821;51.880;-0.518;2022-12-04T12:08:19;100776.41;;;7.06;58.64
46081;BME280;31821;51.880;-0.518;2022-12-04T12:11:04;100840.31;;;7.42;59.15
46081;BME280;31821;51.880;-0.518;2022-12-04T12:16:26;100848.28;;;7.49;59.49
46081;BME280;31821;51.880;-0.518;2022-12-04T12:24:29;100842.53;;;7.35;60.05
46081;BME280;31821;51.880;-0.518;2022-12-04T12:30:04;100834.56;;;7.44;59.83
46081;BME280;31821;51.880;-0.518;2022-12-04T12:38:06;100800.22;;;6.53;61.55
46081;BME280;31821;51.880;-0.518;2022-12-04T12:40:50;100845.19;;;6.73;61.79
46081;BME280;31821;51.880;-0.518;2022-12-04T12:43:28;100854.28;;;7.05;60.44
46081;BME280;31821;51.880;-0.518;2022-12-04T12:56:49;100825.78;;;7.26;60.40
46081;BME280;31821;51.880;-0.518;2022-12-04T12:59:20;100837.28;;;6.97;60.13
46081;BME280;31821;51.880;-0.518;2022-12-04T13:02:01;100831.28;;;7.21;60.88
46081;BME280;31821;51.880;-0.518;2022-12-04T13:04:34;100780.53;;;7.13;60.07
46081;BME280;31821;51.880;-0.518;2022-12-04T13:10:22;100790.97;;;7.11;60.99
46081;BME280;31821;51.880;-0.518;2022-12-04T13:13:02;100758.03;;;7.22;59.72
46081;BME280;31821;51.880;-0.518;2022-12-04T13:15:37;100797.75;;;7.66;59.65
46081;BME280;31821;51.880;-0.518;2022-12-04T13:18:06;100767.09;;;7.17;60.15
46081;BME280;31821;51.880;-0.518;2022-12-04T13:20:38;100786.00;;;6.82;61.53
46081;BME280;31821;51.880;-0.518;2022-12-04T13:23:46;100805.47;;;7.53;59.48
46081;BME280;31821;51.880;-0.518;2022-12-04T13:28:53;100767.13;;;7.22;59.92
46081;BME280;31821;51.880;-0.518;2022-12-04T13:37:06;100809.03;;;7.59;58.79
46081;BME280;31821;51.880;-0.518;2022-12-04T13:42:24;100756.97;;;6.92;60.63
46081;BME280;31821;51.880;-0.518;2022-12-04T13:44:56;100769.31;;;6.99;59.72
46081;BME280;31821;51.880;-0.518;2022-12-04T13:47:31;100807.69;;;7.25;60.91
46081;BME280;31821;51.880;-0.518;2022-12-04T13:52:39;100804.38;;;7.13;61.16
46081;BME280;31821;51.880;-0.518;2022-12-04T13:55:25;100801.91;;;7.53;59.30
46081;BME280;31821;51.880;-0.518;2022-12-04T13:58:04;100792.88;;;7.21;59.73
46081;BME280;31821;51.880;-0.518;2022-12-04T14:00:45;100799.72;;;7.55;60.40
46081;BME280;31821;51.880;-0.518;2022-12-04T14:03:24;100772.31;;;7.24;59.34
46081;BME280;31821;51.880;-0.518;2022-12-04T14:05:52;100774.78;;;7.41;59.43
46081;BME280;31821;51.880;-0.518;2022-12-04T14:10:44;100818.91;;;7.50;57.91
46081;BME280;31821;51.880;-0.518;2022-12-04T14:13:16;100783.00;;;7.30;59.30
46081;BME280;31821;51.880;-0.518;2022-12-04T14:15:43;100770.09;;;7.41;58.72
46081;BME280;31821;51.880;-0.518;2022-12-04T14:20:39;100784.91;;;6.99;59.80
46081;BME280;31821;51.880;-0.518;2022-12-04T14:25:40;100746.53;;;6.83;58.72
46081;BME280;31821;51.880;-0.518;2022-12-04T14:33:38;100796.97;;;7.29;59.97
46081;BME280;31821;51.880;-0.518;2022-12-04T14:36:34;100803.31;;;7.29;59.66
46081;BME280;31821;51.880;-0.518;2022-12-04T14:39:24;100803.56;;;7.23;58.55
46081;BME280;31821;51.880;-0.518;2022-12-04T14:41:52;100836.72;;;6.95;60.94
46081;BME280;31821;51.880;-0.518;2022-12-04T14:44:27;100761.06;;;7.10;59.92
46081;BME280;31821;51.880;-0.518;2022-12-04T14:47:07;100821.13;;;7.53;58.83
46081;BME280;31821;51.880;-0.518;2022-12-04T14:50:00;100752.00;;;6.99;59.38
46081;BME280;31821;51.880;-0.518;2022-12-04T14:52:53;100793.16;;;7.35;58.23
46081;BME280;31821;51.880;-0.518;2022-12-04T14:55:36;100844.41;;;7.76;59.10
46081;BME280;31821;51.880;-0.518;2022-12-04T14:58:15;100847.16;;;7.14;60.92
46081;BME280;31821;51.880;-0.518;2022-12-04T15:01:29;100835.09;;;7.56;59.66
46081;BME280;31821;51.880;-0.518;2022-12-04T15:04:06;100800.56;;;7.29;58.90
46081;BME280;31821;51.880;-0.518;2022-12-04T15:06:34;100827.94;;;7.81;58.51
46081;BME280;31821;51.880;-0.518;2022-12-04T15:09:02;100797.50;;;6.69;60.66
46081;BME280;31821;51.880;-0.518;2022-12-04T15:11:52;100841.13;;;7.33;59.80
46081;BME280;31821;51.880;-0.518;2022-12-04T15:14:46;100792.59;;;7.07;59.28
46081;BME280;31821;51.880;-0.518;2022-12-04T15:17:13;100825.50;;;7.54;57.95